sensor_id;sensor_type;location;lat;lon;timestamp;P1;durP1;ratioP1;P2;durP2;ratioP2
32216;SDS011;18709;51.140;4.088;2022-10-14T00:00:30;31.85;;;22.70;;
32216;SDS011;18709;51.140;4.088;2022-10-14T00:02:56;26.70;;;20.38;;
32216;SDS011;18709;51.140;4.088;2022-10-14T00:05:21;34.38;;;23.10;;
32216;SDS011;18709;51.140;4.088;2022-10-14T00:07:47;30.20;;;21.98;;
32216;SDS011;18709;51.140;4.088;2022-10-14T00:10:13;38.08;;;23.48;;
32216;SDS011;18709;51.140;4.088;2022-10-14T00:12:39;31.75;;;22.27;;
32216;SDS011;18709;51.140;4.088;2022-10-14T00:15:04;32.03;;;21.80;;
32216;SDS011;18709;51.140;4.088;2022-10-14T00:17:31;31.02;;;23.40;;
32216;SDS011;18709;51.140;4.088;2022-10-14T00:19:56;31.67;;;22.55;;
32216;SDS011;18709;51.140;4.088;2022-10-14T00:22:23;33.65;;;22.85;;
32216;SDS011;18709;51.140;4.088;2022-10-14T00:24:49;34.55;;;23.80;;
32216;SDS011;18709;51.140;4.088;2022-10-14T00:27:14;34.03;;;23.25;;
32216;SDS011;18709;51.140;4.088;2022-10-14T00:29:40;35.03;;;23.23;;
32216;SDS011;18709;51.140;4.088;2022-10-14T00:32:06;34.97;;;24.10;;
32216;SDS011;18709;51.140;4.088;2022-10-14T00:34:32;34.25;;;23.60;;
32216;SDS011;18709;51.140;4.088;2022-10-14T00:36:58;36.10;;;23.73;;
32216;SDS011;18709;51.140;4.088;2022-10-14T00:39:23;35.65;;;22.85;;
32216;SDS011;18709;51.140;4.088;2022-10-14T00:41:49;36.92;;;23.05;;
32216;SDS011;18709;51.140;4.088;2022-10-14T00:46:44;36.47;;;24.10;;
32216;SDS011;18709;51.140;4.088;2022-10-14T00:51:58;33.70;;;22.63;;
32216;SDS011;18709;51.140;4.088;2022-10-14T00:54:34;36.85;;;22.85;;
32216;SDS011;18709;51.140;4.088;2022-10-14T00:57:04;39.60;;;23.63;;
32216;SDS011;18709;51.140;4.088;2022-10-14T00:59:31;33.90;;;22.52;;
32216;SDS011;18709;51.140;4.088;2022-10-14T01:01:57;36.30;;;23.65;;
32216;SDS011;18709;51.140;4.088;2022-10-14T01:04:23;33.05;;;22.35;;
32216;SDS011;18709;51.140;4.088;2022-10-14T01:15:18;38.17;;;24.38;;
32216;SDS011;18709;51.140;4.088;2022-10-14T01:17:54;32.63;;;22.63;;
32216;SDS011;18709;51.140;4.088;2022-10-14T01:25:56;36.45;;;23.38;;
32216;SDS011;18709;51.140;4.088;2022-10-14T01:31:02;35.17;;;24.35;;
32216;SDS011;18709;51.140;4.088;2022-10-14T01:33:33;39.22;;;24.13;;
32216;SDS011;18709;51.140;4.088;2022-10-14T01:38:41;37.75;;;23.35;;
32216;SDS011;18709;51.140;4.088;2022-10-14T01:44:02;36.13;;;24.10;;
32216;SDS011;18709;51.140;4.088;2022-10-14T01:46:32;40.33;;;22.85;;
32216;SDS011;18709;51.140;4.088;2022-10-14T01:49:02;40.20;;;23.52;;
32216;SDS011;18709;51.140;4.088;2022-10-14T01:51:50;38.13;;;23.67;;
32216;SDS011;18709;51.140;4.088;2022-10-14T01:54:21;38.67;;;23.85;;
32216;SDS011;18709;51.140;4.088;2022-10-14T01:56:51;37.65;;;23.83;;
32216;SDS011;18709;51.140;4.088;2022-10-14T01:59:19;36.00;;;22.50;;
32216;SDS011;18709;51.140;4.088;2022-10-14T02:01:46;38.55;;;23.52;;
32216;SDS011;18709;51.140;4.088;2022-10-14T02:04:16;38.80;;;24.35;;
32216;SDS011;18709;51.140;4.088;2022-10-14T02:06:59;37.80;;;24.08;;
32216;SDS011;18709;51.140;4.088;2022-10-14T02:17:56;43.35;;;24.67;;
32216;SDS011;18709;51.140;4.088;2022-10-14T02:20:32;38.80;;;23.48;;
32216;SDS011;18709;51.140;4.088;2022-10-14T02:23:21;43.63;;;24.42;;
32216;SDS011;18709;51.140;4.088;2022-10-14T02:25:56;43.63;;;25.23;;
32216;SDS011;18709;51.140;4.088;2022-10-14T02:28:24;42.60;;;25.23;;
32216;SDS011;18709;51.140;4.088;2022-10-14T02:30:53;44.90;;;25.35;;
32216;SDS011;18709;51.140;4.088;2022-10-14T02:33:26;42.00;;;24.92;;
32216;SDS011;18709;51.140;4.088;2022-10-14T02:35:57;40.60;;;24.75;;
32216;SDS011;18709;51.140;4.088;2022-10-14T02:38:23;43.50;;;24.67;;
32216;SDS011;18709;51.140;4.088;2022-10-14T02:40:50;41.63;;;24.15;;
32216;SDS011;18709;51.140;4.088;2022-10-14T02:43:16;39.83;;;23.35;;
32216;SDS011;18709;51.140;4.088;2022-10-14T02:45:42;38.08;;;22.77;;
32216;SDS011;18709;51.140;4.088;2022-10-14T02:48:09;37.75;;;22.58;;
32216;SDS011;18709;51.140;4.088;2022-10-14T02:50:36;40.13;;;23.02;;
32216;SDS011;18709;51.140;4.088;2022-10-14T02:53:02;35.60;;;21.55;;
32216;SDS011;18709;51.140;4.088;2022-10-14T02:55:27;40.63;;;23.20;;
32216;SDS011;18709;51.140;4.088;2022-10-14T02:57:53;38.75;;;23.05;;
32216;SDS011;18709;51.140;4.088;2022-10-14T03:00:19;34.22;;;21.48;;
32216;SDS011;18709;51.140;4.088;2022-10-14T03:02:45;38.58;;;22.73;;
32216;SDS011;18709;51.140;4.088;2022-10-14T03:05:11;38.50;;;23.33;;
32216;SDS011;18709;51.140;4.088;2022-10-14T03:07:36;37.65;;;22.65;;
32216;SDS011;18709;51.140;4.088;2022-10-14T03:10:02;42.28;;;22.48;;
32216;SDS011;18709;51.140;4.088;2022-10-14T03:12:29;42.90;;;22.50;;
32216;SDS011;18709;51.140;4.088;2022-10-14T03:14:54;37.08;;;22.17;;
32216;SDS011;18709;51.140;4.088;2022-10-14T03:17:20;39.53;;;22.85;;
32216;SDS011;18709;51.140;4.088;2022-10-14T03:19:46;37.38;;;20.50;;
32216;SDS011;18709;51.140;4.088;2022-10-14T03:22:11;38.60;;;21.55;;
32216;SDS011;18709;51.140;4.088;2022-10-14T03:24:37;38.17;;;21.33;;
32216;SDS011;18709;51.140;4.088;2022-10-14T03:27:02;37.00;;;21.45;;
32216;SDS011;18709;51.140;4.088;2022-10-14T03:29:28;38.10;;;21.25;;
32216;SDS011;18709;51.140;4.088;2022-10-14T03:31:54;38.80;;;22.25;;
32216;SDS011;18709;51.140;4.088;2022-10-14T03:34:20;39.97;;;21.42;;
32216;SDS011;18709;51.140;4.088;2022-10-14T03:36:45;40.65;;;20.45;;
32216;SDS011;18709;51.140;4.088;2022-10-14T03:39:11;44.03;;;21.60;;
32216;SDS011;18709;51.140;4.088;2022-10-14T03:41:37;36.55;;;21.08;;
32216;SDS011;18709;51.140;4.088;2022-10-14T03:44:03;39.55;;;22.50;;
32216;SDS011;18709;51.140;4.088;2022-10-14T03:46:29;42.40;;;21.90;;
32216;SDS011;18709;51.140;4.088;2022-10-14T03:48:55;39.17;;;21.08;;
32216;SDS011;18709;51.140;4.088;2022-10-14T03:51:21;39.88;;;22.02;;
32216;SDS011;18709;51.140;4.088;2022-10-14T03:53:46;40.53;;;21.67;;
32216;SDS011;18709;51.140;4.088;2022-10-14T03:56:12;38.22;;;21.13;;
32216;SDS011;18709;51.140;4.088;2022-10-14T03:58:38;38.15;;;20.80;;
32216;SDS011;18709;51.140;4.088;2022-10-14T04:01:04;41.15;;;21.23;;
32216;SDS011;18709;51.140;4.088;2022-10-14T04:03:29;39.97;;;21.48;;
32216;SDS011;18709;51.140;4.088;2022-10-14T04:05:55;40.97;;;21.92;;
32216;SDS011;18709;51.140;4.088;2022-10-14T04:08:21;44.50;;;21.05;;
32216;SDS011;18709;51.140;4.088;2022-10-14T04:10:53;45.83;;;22.40;;
32216;SDS011;18709;51.140;4.088;2022-10-14T04:13:19;41.88;;;21.30;;
32216;SDS011;18709;51.140;4.088;2022-10-14T04:15:45;38.17;;;21.15;;
32216;SDS011;18709;51.140;4.088;2022-10-14T04:18:10;40.55;;;21.55;;
32216;SDS011;18709;51.140;4.088;2022-10-14T04:20:36;39.47;;;21.10;;
32216;SDS011;18709;51.140;4.088;2022-10-14T04:23:03;39.22;;;21.05;;
32216;SDS011;18709;51.140;4.088;2022-10-14T04:25:28;37.45;;;20.58;;
32216;SDS011;18709;51.140;4.088;2022-10-14T04:27:54;34.90;;;19.75;;
32216;SDS011;18709;51.140;4.088;2022-10-14T04:30:20;35.40;;;19.17;;
32216;SDS011;18709;51.140;4.088;2022-10-14T04:32:45;35.72;;;19.02;;
32216;SDS011;18709;51.140;4.088;2022-10-14T04:35:11;34.20;;;19.63;;
32216;SDS011;18709;51.140;4.088;2022-10-14T04:37:37;38.70;;;20.02;;
32216;SDS011;18709;51.140;4.088;2022-10-14T04:40:03;31.73;;;18.38;;
32216;SDS011;18709;51.140;4.088;2022-10-14T04:42:29;33.65;;;20.38;;
32216;SDS011;18709;51.140;4.088;2022-10-14T04:44:55;36.80;;;21.45;;
32216;SDS011;18709;51.140;4.088;2022-10-14T04:47:21;37.85;;;20.80;;
32216;SDS011;18709;51.140;4.088;2022-10-14T04:49:47;35.58;;;20.42;;
32216;SDS011;18709;51.140;4.088;2022-10-14T04:52:12;28.30;;;18.27;;
32216;SDS011;18709;51.140;4.088;2022-10-14T04:54:38;32.67;;;19.20;;
32216;SDS011;18709;51.140;4.088;2022-10-14T04:57:04;32.13;;;18.30;;
32216;SDS011;18709;51.140;4.088;2022-10-14T04:59:29;34.40;;;19.45;;
32216;SDS011;18709;51.140;4.088;2022-10-14T05:01:55;31.50;;;17.42;;
32216;SDS011;18709;51.140;4.088;2022-10-14T05:04:21;28.75;;;17.83;;
32216;SDS011;18709;51.140;4.088;2022-10-14T05:06:46;27.38;;;16.00;;
32216;SDS011;18709;51.140;4.088;2022-10-14T05:09:12;29.48;;;17.58;;
32216;SDS011;18709;51.140;4.088;2022-10-14T05:11:38;27.50;;;16.45;;
32216;SDS011;18709;51.140;4.088;2022-10-14T05:14:03;28.20;;;16.35;;
32216;SDS011;18709;51.140;4.088;2022-10-14T05:16:29;28.13;;;15.75;;
32216;SDS011;18709;51.140;4.088;2022-10-14T05:18:55;28.58;;;16.27;;
32216;SDS011;18709;51.140;4.088;2022-10-14T05:21:21;28.75;;;16.67;;
32216;SDS011;18709;51.140;4.088;2022-10-14T05:23:46;28.67;;;16.73;;
32216;SDS011;18709;51.140;4.088;2022-10-14T05:26:12;28.77;;;16.88;;
32216;SDS011;18709;51.140;4.088;2022-10-14T05:28:38;26.65;;;16.55;;
32216;SDS011;18709;51.140;4.088;2022-10-14T05:31:04;25.55;;;16.08;;
32216;SDS011;18709;51.140;4.088;2022-10-14T05:33:30;30.70;;;16.38;;
32216;SDS011;18709;51.140;4.088;2022-10-14T05:35:56;28.63;;;15.98;;
32216;SDS011;18709;51.140;4.088;2022-10-14T05:38:22;26.33;;;15.85;;
32216;SDS011;18709;51.140;4.088;2022-10-14T05:40:53;30.83;;;16.95;;
32216;SDS011;18709;51.140;4.088;2022-10-14T05:43:20;25.95;;;15.98;;
32216;SDS011;18709;51.140;4.088;2022-10-14T05:45:46;27.08;;;16.40;;
32216;SDS011;18709;51.140;4.088;2022-10-14T05:48:12;29.20;;;16.75;;
32216;SDS011;18709;51.140;4.088;2022-10-14T05:50:38;26.70;;;16.65;;
32216;SDS011;18709;51.140;4.088;2022-10-14T05:53:03;25.48;;;16.50;;
32216;SDS011;18709;51.140;4.088;2022-10-14T05:55:29;29.13;;;17.20;;
32216;SDS011;18709;51.140;4.088;2022-10-14T05:57:55;27.90;;;17.77;;
32216;SDS011;18709;51.140;4.088;2022-10-14T06:00:22;29.40;;;18.55;;
32216;SDS011;18709;51.140;4.088;2022-10-14T06:02:47;30.73;;;18.55;;
32216;SDS011;18709;51.140;4.088;2022-10-14T06:05:13;29.08;;;19.65;;
32216;SDS011;18709;51.140;4.088;2022-10-14T06:07:39;29.25;;;19.65;;
32216;SDS011;18709;51.140;4.088;2022-10-14T06:10:05;25.70;;;17.58;;
32216;SDS011;18709;51.140;4.088;2022-10-14T06:12:31;29.20;;;19.42;;
32216;SDS011;18709;51.140;4.088;2022-10-14T06:14:56;27.83;;;18.20;;
32216;SDS011;18709;51.140;4.088;2022-10-14T06:17:22;27.85;;;17.98;;
32216;SDS011;18709;51.140;4.088;2022-10-14T06:19:48;26.55;;;17.80;;
32216;SDS011;18709;51.140;4.088;2022-10-14T06:22:14;27.13;;;17.38;;
32216;SDS011;18709;51.140;4.088;2022-10-14T06:24:39;24.20;;;16.33;;
32216;SDS011;18709;51.140;4.088;2022-10-14T06:27:05;30.05;;;16.15;;
32216;SDS011;18709;51.140;4.088;2022-10-14T06:29:31;24.65;;;15.25;;
32216;SDS011;18709;51.140;4.088;2022-10-14T06:32:03;22.88;;;14.82;;
32216;SDS011;18709;51.140;4.088;2022-10-14T06:34:29;21.40;;;14.90;;
32216;SDS011;18709;51.140;4.088;2022-10-14T06:36:55;18.35;;;14.07;;
32216;SDS011;18709;51.140;4.088;2022-10-14T06:39:21;21.42;;;14.25;;
32216;SDS011;18709;51.140;4.088;2022-10-14T06:41:46;20.38;;;13.65;;
32216;SDS011;18709;51.140;4.088;2022-10-14T06:44:12;17.20;;;12.27;;
32216;SDS011;18709;51.140;4.088;2022-10-14T06:46:39;19.20;;;12.40;;
32216;SDS011;18709;51.140;4.088;2022-10-14T06:49:05;18.17;;;12.32;;
32216;SDS011;18709;51.140;4.088;2022-10-14T06:51:31;17.77;;;11.43;;
32216;SDS011;18709;51.140;4.088;2022-10-14T06:53:57;15.20;;;11.18;;
32216;SDS011;18709;51.140;4.088;2022-10-14T06:56:22;17.60;;;11.10;;
32216;SDS011;18709;51.140;4.088;2022-10-14T06:58:51;15.40;;;11.32;;
32216;SDS011;18709;51.140;4.088;2022-10-14T07:01:18;14.37;;;10.10;;
32216;SDS011;18709;51.140;4.088;2022-10-14T07:03:44;18.05;;;11.55;;
32216;SDS011;18709;51.140;4.088;2022-10-14T07:06:10;15.13;;;10.52;;
32216;SDS011;18709;51.140;4.088;2022-10-14T07:08:35;15.82;;;11.65;;
32216;SDS011;18709;51.140;4.088;2022-10-14T07:11:02;16.65;;;11.65;;
32216;SDS011;18709;51.140;4.088;2022-10-14T07:13:28;16.35;;;10.88;;
32216;SDS011;18709;51.140;4.088;2022-10-14T07:15:53;19.23;;;11.85;;
32216;SDS011;18709;51.140;4.088;2022-10-14T07:18:19;17.58;;;13.00;;
32216;SDS011;18709;51.140;4.088;2022-10-14T07:20:45;18.38;;;12.13;;
32216;SDS011;18709;51.140;4.088;2022-10-14T07:23:11;14.68;;;11.10;;
32216;SDS011;18709;51.140;4.088;2022-10-14T07:25:37;16.70;;;11.70;;
32216;SDS011;18709;51.140;4.088;2022-10-14T07:28:02;17.40;;;11.15;;
32216;SDS011;18709;51.140;4.088;2022-10-14T07:30:28;20.08;;;11.70;;
32216;SDS011;18709;51.140;4.088;2022-10-14T07:32:55;16.02;;;11.43;;
32216;SDS011;18709;51.140;4.088;2022-10-14T07:35:20;18.05;;;11.55;;
32216;SDS011;18709;51.140;4.088;2022-10-14T07:37:46;16.67;;;10.85;;
32216;SDS011;18709;51.140;4.088;2022-10-14T07:40:12;19.10;;;10.75;;
32216;SDS011;18709;51.140;4.088;2022-10-14T07:42:38;16.90;;;10.55;;
32216;SDS011;18709;51.140;4.088;2022-10-14T07:45:04;15.52;;;11.10;;
32216;SDS011;18709;51.140;4.088;2022-10-14T07:47:31;15.23;;;10.90;;
32216;SDS011;18709;51.140;4.088;2022-10-14T07:49:58;15.02;;;10.90;;
32216;SDS011;18709;51.140;4.088;2022-10-14T07:52:26;14.85;;;10.63;;
32216;SDS011;18709;51.140;4.088;2022-10-14T07:54:51;15.77;;;10.60;;
32216;SDS011;18709;51.140;4.088;2022-10-14T07:57:17;13.95;;;10.10;;
32216;SDS011;18709;51.140;4.088;2022-10-14T07:59:43;18.42;;;11.50;;
32216;SDS011;18709;51.140;4.088;2022-10-14T08:02:10;15.73;;;11.27;;
32216;SDS011;18709;51.140;4.088;2022-10-14T08:04:36;14.00;;;9.75;;
32216;SDS011;18709;51.140;4.088;2022-10-14T08:07:02;17.25;;;10.77;;
32216;SDS011;18709;51.140;4.088;2022-10-14T08:09:28;12.23;;;9.65;;
32216;SDS011;18709;51.140;4.088;2022-10-14T08:11:54;15.63;;;9.80;;
32216;SDS011;18709;51.140;4.088;2022-10-14T08:14:20;16.10;;;9.32;;
32216;SDS011;18709;51.140;4.088;2022-10-14T08:16:46;14.43;;;10.07;;
32216;SDS011;18709;51.140;4.088;2022-10-14T08:19:11;13.07;;;10.02;;
32216;SDS011;18709;51.140;4.088;2022-10-14T08:21:38;12.35;;;9.75;;
32216;SDS011;18709;51.140;4.088;2022-10-14T08:24:04;12.32;;;9.10;;
32216;SDS011;18709;51.140;4.088;2022-10-14T08:26:31;12.10;;;8.68;;
32216;SDS011;18709;51.140;4.088;2022-10-14T08:28:59;14.80;;;8.93;;
32216;SDS011;18709;51.140;4.088;2022-10-14T08:31:26;13.98;;;8.15;;
32216;SDS011;18709;51.140;4.088;2022-10-14T08:33:53;12.85;;;8.35;;
32216;SDS011;18709;51.140;4.088;2022-10-14T08:36:19;12.55;;;8.85;;
32216;SDS011;18709;51.140;4.088;2022-10-14T08:38:45;11.43;;;8.05;;
32216;SDS011;18709;51.140;4.088;2022-10-14T08:41:17;10.82;;;7.97;;
32216;SDS011;18709;51.140;4.088;2022-10-14T08:46:56;9.70;;;7.40;;
32216;SDS011;18709;51.140;4.088;2022-10-14T08:52:15;10.88;;;7.68;;
32216;SDS011;18709;51.140;4.088;2022-10-14T08:54:47;11.35;;;7.47;;
32216;SDS011;18709;51.140;4.088;2022-10-14T08:57:20;9.98;;;6.97;;
32216;SDS011;18709;51.140;4.088;2022-10-14T08:59:47;9.95;;;7.18;;
32216;SDS011;18709;51.140;4.088;2022-10-14T09:02:17;9.60;;;6.88;;
32216;SDS011;18709;51.140;4.088;2022-10-14T09:04:47;10.15;;;6.97;;
32216;SDS011;18709;51.140;4.088;2022-10-14T09:07:14;11.63;;;6.72;;
32216;SDS011;18709;51.140;4.088;2022-10-14T09:09:42;9.98;;;6.40;;
32216;SDS011;18709;51.140;4.088;2022-10-14T09:12:14;11.35;;;7.10;;
32216;SDS011;18709;51.140;4.088;2022-10-14T09:14:51;8.43;;;5.43;;
32216;SDS011;18709;51.140;4.088;2022-10-14T09:17:26;8.02;;;5.25;;
32216;SDS011;18709;51.140;4.088;2022-10-14T09:20:02;6.13;;;5.13;;
32216;SDS011;18709;51.140;4.088;2022-10-14T09:22:38;7.82;;;5.85;;
32216;SDS011;18709;51.140;4.088;2022-10-14T09:25:07;9.18;;;5.18;;
32216;SDS011;18709;51.140;4.088;2022-10-14T09:27:38;7.72;;;4.43;;
32216;SDS011;18709;51.140;4.088;2022-10-14T09:30:04;6.00;;;3.90;;
32216;SDS011;18709;51.140;4.088;2022-10-14T09:32:44;5.97;;;3.80;;
32216;SDS011;18709;51.140;4.088;2022-10-14T09:35:14;5.05;;;4.18;;
32216;SDS011;18709;51.140;4.088;2022-10-14T09:37:50;5.45;;;4.13;;
32216;SDS011;18709;51.140;4.088;2022-10-14T09:40:30;4.82;;;3.97;;
32216;SDS011;18709;51.140;4.088;2022-10-14T09:48:29;6.65;;;3.97;;
32216;SDS011;18709;51.140;4.088;2022-10-14T09:51:00;4.93;;;3.50;;
32216;SDS011;18709;51.140;4.088;2022-10-14T09:53:32;4.53;;;3.38;;
32216;SDS011;18709;51.140;4.088;2022-10-14T09:56:03;5.25;;;3.05;;
32216;SDS011;18709;51.140;4.088;2022-10-14T09:58:37;3.95;;;3.10;;
32216;SDS011;18709;51.140;4.088;2022-10-14T10:01:15;5.10;;;3.38;;
32216;SDS011;18709;51.140;4.088;2022-10-14T10:03:43;5.07;;;2.67;;
32216;SDS011;18709;51.140;4.088;2022-10-14T10:06:13;2.90;;;2.50;;
32216;SDS011;18709;51.140;4.088;2022-10-14T10:11:17;3.28;;;2.83;;
32216;SDS011;18709;51.140;4.088;2022-10-14T10:13:53;7.70;;;3.72;;
32216;SDS011;18709;51.140;4.088;2022-10-14T10:18:47;7.18;;;5.00;;
32216;SDS011;18709;51.140;4.088;2022-10-14T10:21:18;8.73;;;5.20;;
32216;SDS011;18709;51.140;4.088;2022-10-14T10:26:28;9.43;;;6.38;;
32216;SDS011;18709;51.140;4.088;2022-10-14T10:28:57;10.23;;;6.30;;
32216;SDS011;18709;51.140;4.088;2022-10-14T10:31:30;9.63;;;6.63;;
32216;SDS011;18709;51.140;4.088;2022-10-14T10:36:44;9.23;;;6.97;;
32216;SDS011;18709;51.140;4.088;2022-10-14T10:50:14;12.40;;;8.35;;
32216;SDS011;18709;51.140;4.088;2022-10-14T11:00:53;12.77;;;9.80;;
32216;SDS011;18709;51.140;4.088;2022-10-14T11:06:29;13.70;;;9.98;;
32216;SDS011;18709;51.140;4.088;2022-10-14T11:09:18;15.77;;;10.32;;
32216;SDS011;18709;51.140;4.088;2022-10-14T11:12:21;15.05;;;10.27;;
32216;SDS011;18709;51.140;4.088;2022-10-14T11:17:36;13.13;;;10.40;;
32216;SDS011;18709;51.140;4.088;2022-10-14T11:21:01;16.23;;;11.68;;
32216;SDS011;18709;51.140;4.088;2022-10-14T11:28:13;19.70;;;12.52;;
32216;SDS011;18709;51.140;4.088;2022-10-14T11:33:56;17.52;;;12.70;;
32216;SDS011;18709;51.140;4.088;2022-10-14T11:39:25;18.27;;;11.65;;
32216;SDS011;18709;51.140;4.088;2022-10-14T11:44:57;18.27;;;11.82;;
32216;SDS011;18709;51.140;4.088;2022-10-14T11:47:32;16.45;;;11.98;;
32216;SDS011;18709;51.140;4.088;2022-10-14T11:52:31;22.75;;;15.18;;
32216;SDS011;18709;51.140;4.088;2022-10-14T11:55:20;21.13;;;15.20;;
32216;SDS011;18709;51.140;4.088;2022-10-14T11:57:48;24.80;;;16.35;;
32216;SDS011;18709;51.140;4.088;2022-10-14T12:00:18;25.88;;;16.88;;
32216;SDS011;18709;51.140;4.088;2022-10-14T12:14:21;26.88;;;19.15;;
32216;SDS011;18709;51.140;4.088;2022-10-14T12:16:50;30.83;;;19.92;;
32216;SDS011;18709;51.140;4.088;2022-10-14T12:19:27;27.58;;;20.33;;
32216;SDS011;18709;51.140;4.088;2022-10-14T12:24:57;32.83;;;23.00;;
32216;SDS011;18709;51.140;4.088;2022-10-14T12:27:27;30.10;;;21.73;;
32216;SDS011;18709;51.140;4.088;2022-10-14T12:29:54;28.88;;;21.33;;
32216;SDS011;18709;51.140;4.088;2022-10-14T12:32:26;29.23;;;21.25;;
32216;SDS011;18709;51.140;4.088;2022-10-14T12:34:56;30.63;;;20.63;;
32216;SDS011;18709;51.140;4.088;2022-10-14T12:42:27;31.48;;;21.35;;
32216;SDS011;18709;51.140;4.088;2022-10-14T12:44:55;35.70;;;21.55;;
32216;SDS011;18709;51.140;4.088;2022-10-14T12:47:32;30.40;;;21.42;;
32216;SDS011;18709;51.140;4.088;2022-10-14T12:50:00;30.52;;;21.30;;
32216;SDS011;18709;51.140;4.088;2022-10-14T12:52:54;28.95;;;20.10;;
32216;SDS011;18709;51.140;4.088;2022-10-14T12:55:22;26.35;;;20.20;;
32216;SDS011;18709;51.140;4.088;2022-10-14T12:57:57;28.33;;;21.10;;
32216;SDS011;18709;51.140;4.088;2022-10-14T13:00:37;27.35;;;19.35;;
32216;SDS011;18709;51.140;4.088;2022-10-14T13:03:05;28.70;;;19.23;;
32216;SDS011;18709;51.140;4.088;2022-10-14T13:05:43;25.40;;;18.63;;
32216;SDS011;18709;51.140;4.088;2022-10-14T13:18:51;21.33;;;15.02;;
32216;SDS011;18709;51.140;4.088;2022-10-14T13:24:04;18.92;;;14.25;;
32216;SDS011;18709;51.140;4.088;2022-10-14T13:26:50;17.65;;;13.40;;
32216;SDS011;18709;51.140;4.088;2022-10-14T13:31:54;20.17;;;14.50;;
32216;SDS011;18709;51.140;4.088;2022-10-14T13:37:35;18.77;;;14.65;;
32216;SDS011;18709;51.140;4.088;2022-10-14T13:43:01;19.30;;;14.85;;
32216;SDS011;18709;51.140;4.088;2022-10-14T13:45:43;21.10;;;15.10;;
32216;SDS011;18709;51.140;4.088;2022-10-14T13:48:17;18.02;;;14.25;;
32216;SDS011;18709;51.140;4.088;2022-10-14T13:50:49;18.88;;;15.10;;
32216;SDS011;18709;51.140;4.088;2022-10-14T13:53:17;18.90;;;13.70;;
32216;SDS011;18709;51.140;4.088;2022-10-14T13:55:46;19.02;;;13.82;;
32216;SDS011;18709;51.140;4.088;2022-10-14T13:58:17;21.13;;;14.30;;
32216;SDS011;18709;51.140;4.088;2022-10-14T14:03:26;17.65;;;14.20;;
32216;SDS011;18709;51.140;4.088;2022-10-14T14:05:53;18.75;;;14.88;;
32216;SDS011;18709;51.140;4.088;2022-10-14T14:08:25;17.60;;;13.70;;
32216;SDS011;18709;51.140;4.088;2022-10-14T14:10:55;16.75;;;14.65;;
32216;SDS011;18709;51.140;4.088;2022-10-14T14:13:29;20.77;;;15.73;;
32216;SDS011;18709;51.140;4.088;2022-10-14T14:16:00;18.92;;;14.70;;
32216;SDS011;18709;51.140;4.088;2022-10-14T14:21:03;21.92;;;14.27;;
32216;SDS011;18709;51.140;4.088;2022-10-14T14:23:29;33.55;;;16.75;;
32216;SDS011;18709;51.140;4.088;2022-10-14T14:25:55;22.83;;;15.50;;
32216;SDS011;18709;51.140;4.088;2022-10-14T14:28:21;22.77;;;15.35;;
32216;SDS011;18709;51.140;4.088;2022-10-14T14:30:53;21.73;;;15.80;;
32216;SDS011;18709;51.140;4.088;2022-10-14T14:33:30;21.55;;;16.00;;
32216;SDS011;18709;51.140;4.088;2022-10-14T14:35:58;17.35;;;14.57;;
32216;SDS011;18709;51.140;4.088;2022-10-14T14:38:30;24.35;;;16.67;;
32216;SDS011;18709;51.140;4.088;2022-10-14T14:41:05;20.98;;;16.38;;
32216;SDS011;18709;51.140;4.088;2022-10-14T14:43:40;19.35;;;14.25;;
32216;SDS011;18709;51.140;4.088;2022-10-14T14:46:07;20.40;;;13.68;;
32216;SDS011;18709;51.140;4.088;2022-10-14T14:48:42;22.50;;;14.68;;
32216;SDS011;18709;51.140;4.088;2022-10-14T14:51:11;16.70;;;12.70;;
32216;SDS011;18709;51.140;4.088;2022-10-14T14:53:38;16.73;;;13.15;;
32216;SDS011;18709;51.140;4.088;2022-10-14T14:56:04;15.90;;;12.05;;
32216;SDS011;18709;51.140;4.088;2022-10-14T15:01:17;18.83;;;12.40;;
32216;SDS011;18709;51.140;4.088;2022-10-14T15:06:36;16.77;;;11.98;;
32216;SDS011;18709;51.140;4.088;2022-10-14T15:09:12;16.00;;;12.95;;
32216;SDS011;18709;51.140;4.088;2022-10-14T15:11:51;14.82;;;11.98;;
32216;SDS011;18709;51.140;4.088;2022-10-14T15:14:26;17.13;;;13.05;;
32216;SDS011;18709;51.140;4.088;2022-10-14T15:16:54;19.88;;;13.20;;
32216;SDS011;18709;51.140;4.088;2022-10-14T15:19:30;17.17;;;12.98;;
32216;SDS011;18709;51.140;4.088;2022-10-14T15:32:48;20.33;;;15.02;;
32216;SDS011;18709;51.140;4.088;2022-10-14T15:35:17;21.58;;;15.10;;
32216;SDS011;18709;51.140;4.088;2022-10-14T15:37:44;18.70;;;13.85;;
32216;SDS011;18709;51.140;4.088;2022-10-14T15:40:12;17.02;;;13.38;;
32216;SDS011;18709;51.140;4.088;2022-10-14T15:42:40;22.05;;;15.57;;
32216;SDS011;18709;51.140;4.088;2022-10-14T15:45:06;23.55;;;15.48;;
32216;SDS011;18709;51.140;4.088;2022-10-14T15:47:32;21.27;;;15.38;;
32216;SDS011;18709;51.140;4.088;2022-10-14T15:49:59;30.42;;;15.90;;
32216;SDS011;18709;51.140;4.088;2022-10-14T15:52:31;20.98;;;14.50;;
32216;SDS011;18709;51.140;4.088;2022-10-14T15:54:57;24.17;;;14.65;;
32216;SDS011;18709;51.140;4.088;2022-10-14T15:57:23;26.67;;;16.45;;
32216;SDS011;18709;51.140;4.088;2022-10-14T15:59:48;27.02;;;17.98;;
32216;SDS011;18709;51.140;4.088;2022-10-14T16:02:16;22.77;;;17.23;;
32216;SDS011;18709;51.140;4.088;2022-10-14T16:04:48;27.75;;;17.52;;
32216;SDS011;18709;51.140;4.088;2022-10-14T16:07:15;25.77;;;15.60;;
32216;SDS011;18709;51.140;4.088;2022-10-14T16:09:41;21.40;;;14.75;;
32216;SDS011;18709;51.140;4.088;2022-10-14T16:12:09;19.23;;;14.80;;
32216;SDS011;18709;51.140;4.088;2022-10-14T16:14:37;20.52;;;14.98;;
32216;SDS011;18709;51.140;4.088;2022-10-14T16:17:02;23.05;;;15.35;;
32216;SDS011;18709;51.140;4.088;2022-10-14T16:19:28;19.70;;;14.50;;
32216;SDS011;18709;51.140;4.088;2022-10-14T16:21:54;29.25;;;20.52;;
32216;SDS011;18709;51.140;4.088;2022-10-14T16:24:20;32.58;;;21.48;;
32216;SDS011;18709;51.140;4.088;2022-10-14T16:26:49;37.22;;;26.90;;
32216;SDS011;18709;51.140;4.088;2022-10-14T16:29:19;51.10;;;35.40;;
32216;SDS011;18709;51.140;4.088;2022-10-14T16:31:46;60.67;;;40.05;;
32216;SDS011;18709;51.140;4.088;2022-10-14T16:34:17;68.95;;;42.53;;
32216;SDS011;18709;51.140;4.088;2022-10-14T16:36:44;72.25;;;43.40;;
32216;SDS011;18709;51.140;4.088;2022-10-14T16:39:10;57.78;;;38.05;;
32216;SDS011;18709;51.140;4.088;2022-10-14T16:41:37;59.17;;;36.35;;
32216;SDS011;18709;51.140;4.088;2022-10-14T16:44:03;47.90;;;31.98;;
32216;SDS011;18709;51.140;4.088;2022-10-14T16:46:29;41.83;;;28.13;;
32216;SDS011;18709;51.140;4.088;2022-10-14T16:49:14;40.53;;;25.95;;
32216;SDS011;18709;51.140;4.088;2022-10-14T16:51:40;39.45;;;24.75;;
32216;SDS011;18709;51.140;4.088;2022-10-14T16:54:07;34.60;;;22.17;;
32216;SDS011;18709;51.140;4.088;2022-10-14T16:56:33;36.03;;;22.73;;
32216;SDS011;18709;51.140;4.088;2022-10-14T16:59:16;29.30;;;19.63;;
32216;SDS011;18709;51.140;4.088;2022-10-14T17:01:42;25.50;;;19.17;;
32216;SDS011;18709;51.140;4.088;2022-10-14T17:04:08;26.58;;;18.33;;
32216;SDS011;18709;51.140;4.088;2022-10-14T17:06:34;27.02;;;17.52;;
32216;SDS011;18709;51.140;4.088;2022-10-14T17:09:00;27.55;;;17.67;;
32216;SDS011;18709;51.140;4.088;2022-10-14T17:11:26;30.42;;;19.67;;
32216;SDS011;18709;51.140;4.088;2022-10-14T17:13:53;30.55;;;21.15;;